Terminal Aerodrome Forecast
Issued by NWS

Home | Current Version | Previous Version | Text Only | Print | Product List | Glossary On
Versions: 1 2 3 4 5 6 7 8 9 10 11 12 13
999
FTUS42 TJSJ 301725
TAFNCM
TAF
TNCM 301725Z 3018/0118 13011KT P6SM -RA SCT020 SCT040 BKN090
      TEMPO 3018/3022 VRB12G20KT 5SM SHRA BKN018 BKN040
     FM302330 11008KT P6SM VCSH FEW020 BKN040 BKN100=

USA.gov is the U.S. government's official web portal to all federal, state and local government web resources and services.